FZIA weather

Kisangani Simisini Airport
Orientale Province, Congo (Kinshasa)

Public forecast

Using degrees Celsius for public forecast. Weather courtesy of forecast.io.

METAR (pilot weather report)

Closest report is Bangoka International Airport, 11.2 nm (20.7 km) E. Retrieved 2019/02/19 14:00 UTC (60 minutes ago):

FZIC 191400Z 03006KT 7000 FEW036 FEW038TCU 33/21 Q1008 NOSIG

TAF (pilot weather forecast)

Forecast is more than 12 hours old.

Closest forecast is Bangoka International Airport, 11.2 nm (20.7 km) E. Retrieved 2017/11/26 18:00 UTC (1 year ago):

TAF FZIC 261700Z 2618/2724 VRB04KT 5000 HZ NSC BECMG 2621/2623 2000 BR BECMG 2705/2707 12006KT 6000 SCT009 BECMG 2710/2712 FEW012 FEW024CB